sensor_id;sensor_type;location;lat;lon;timestamp;pressure;altitude;pressure_sealevel;temperature;humidity
33189;BME280;52601;53.070;10.600;2023-06-22T15:34:01;101106.78;;;34.24;46.26
33189;BME280;52601;53.070;10.600;2023-06-22T15:36:48;101118.59;;;33.99;46.12
33189;BME280;52601;53.070;10.600;2023-06-22T15:39:36;101132.56;;;34.15;45.58
33189;BME280;52601;53.070;10.600;2023-06-22T15:42:21;101142.06;;;34.44;45.95
33189;BME280;52601;53.070;10.600;2023-06-22T15:45:07;101137.03;;;34.41;46.29
33189;BME280;52601;53.070;10.600;2023-06-22T15:47:53;101148.16;;;34.39;46.69
33189;BME280;52601;53.070;10.600;2023-06-22T15:50:39;101146.66;;;34.06;46.51
33189;BME280;52601;53.070;10.600;2023-06-22T15:53:24;101148.53;;;34.12;47.16
33189;BME280;52601;53.070;10.600;2023-06-22T15:56:10;101138.22;;;34.20;47.08
33189;BME280;52601;53.070;10.600;2023-06-22T15:58:56;101134.22;;;34.23;46.13
33189;BME280;52601;53.070;10.600;2023-06-22T16:01:42;101130.84;;;34.27;47.14
33189;BME280;52601;53.070;10.600;2023-06-22T16:04:28;101136.00;;;34.04;47.01
33189;BME280;52601;53.070;10.600;2023-06-22T16:07:14;101124.59;;;34.20;47.48
33189;BME280;52601;53.070;10.600;2023-06-22T16:09:59;101127.16;;;34.09;46.30
33189;BME280;52601;53.070;10.600;2023-06-22T16:12:45;101106.91;;;33.98;47.67
33189;BME280;52601;53.070;10.600;2023-06-22T16:15:31;101109.00;;;33.89;47.36
33189;BME280;52601;53.070;10.600;2023-06-22T16:18:16;101106.69;;;34.00;47.34
33189;BME280;52601;53.070;10.600;2023-06-22T16:21:01;101114.16;;;34.11;46.94
33189;BME280;52601;53.070;10.600;2023-06-22T16:23:49;101118.56;;;33.48;47.07
33189;BME280;52601;53.070;10.600;2023-06-22T16:26:38;101116.44;;;33.56;47.18
33189;BME280;52601;53.070;10.600;2023-06-22T16:29:27;101115.38;;;33.57;46.90
33189;BME280;52601;53.070;10.600;2023-06-22T16:32:13;101118.72;;;33.59;48.06
33189;BME280;52601;53.070;10.600;2023-06-22T16:35:00;101123.53;;;33.64;48.12
33189;BME280;52601;53.070;10.600;2023-06-22T16:37:45;101116.41;;;33.63;47.93
33189;BME280;52601;53.070;10.600;2023-06-22T16:40:31;101130.00;;;33.69;51.16
33189;BME280;52601;53.070;10.600;2023-06-22T16:43:17;101119.41;;;33.29;51.16
33189;BME280;52601;53.070;10.600;2023-06-22T16:46:03;101113.13;;;33.15;52.43
33189;BME280;52601;53.070;10.600;2023-06-22T16:48:51;101126.31;;;33.12;53.34
33189;BME280;52601;53.070;10.600;2023-06-22T16:51:37;101132.16;;;32.82;60.22
33189;BME280;52601;53.070;10.600;2023-06-22T16:54:23;101137.44;;;32.23;61.23
33189;BME280;52601;53.070;10.600;2023-06-22T16:57:09;101143.47;;;31.72;63.60
33189;BME280;52601;53.070;10.600;2023-06-22T16:59:56;101170.09;;;30.85;67.63
33189;BME280;52601;53.070;10.600;2023-06-22T17:02:49;101173.69;;;30.21;91.75
33189;BME280;52601;53.070;10.600;2023-06-22T17:05:57;52551.44;;;-141.87;100.00
33189;BME280;52601;53.070;10.600;2023-06-22T17:08:47;52551.44;;;-141.87;100.00
33189;BME280;52601;53.070;10.600;2023-06-22T17:11:33;52551.44;;;-141.87;100.00
33189;BME280;52601;53.070;10.600;2023-06-22T17:14:30;52551.44;;;-141.87;100.00
33189;BME280;52601;53.070;10.600;2023-06-22T17:17:32;52551.44;;;-141.87;100.00
33189;BME280;52601;53.070;10.600;2023-06-22T17:20:18;52551.44;;;-141.87;100.00
33189;BME280;52601;53.070;10.600;2023-06-22T17:23:04;52551.44;;;-141.87;100.00
33189;BME280;52601;53.070;10.600;2023-06-22T17:25:52;52551.44;;;-141.87;100.00
33189;BME280;52601;53.070;10.600;2023-06-22T17:29:46;52551.44;;;-141.87;100.00
33189;BME280;52601;53.070;10.600;2023-06-22T17:33:30;52551.44;;;-141.87;100.00
33189;BME280;52601;53.070;10.600;2023-06-22T17:37:15;52551.44;;;-141.87;100.00
33189;BME280;52601;53.070;10.600;2023-06-22T17:41:00;52551.44;;;-141.87;100.00
33189;BME280;52601;53.070;10.600;2023-06-22T17:44:46;52551.44;;;-141.87;100.00
33189;BME280;52601;53.070;10.600;2023-06-22T17:48:32;52551.44;;;-141.87;100.00
33189;BME280;52601;53.070;10.600;2023-06-22T17:52:17;52551.44;;;-141.87;100.00
33189;BME280;52601;53.070;10.600;2023-06-22T17:56:01;52551.44;;;-141.87;100.00
33189;BME280;52601;53.070;10.600;2023-06-22T17:59:50;52551.44;;;-141.87;100.00
33189;BME280;52601;53.070;10.600;2023-06-22T18:03:35;52551.44;;;-141.87;100.00
33189;BME280;52601;53.070;10.600;2023-06-22T18:07:23;52551.44;;;-141.87;100.00
33189;BME280;52601;53.070;10.600;2023-06-22T18:11:08;52551.44;;;-141.87;100.00
33189;BME280;52601;53.070;10.600;2023-06-22T18:14:53;52551.44;;;-141.87;100.00
33189;BME280;52601;53.070;10.600;2023-06-22T18:18:39;52551.44;;;-141.87;100.00
33189;BME280;52601;53.070;10.600;2023-06-22T18:22:04;52551.44;;;-141.87;100.00
33189;BME280;52601;53.070;10.600;2023-06-22T18:25:49;52551.44;;;-141.87;100.00
33189;BME280;52601;53.070;10.600;2023-06-22T18:29:34;52551.44;;;-141.87;100.00
33189;BME280;52601;53.070;10.600;2023-06-22T18:33:18;52551.44;;;-141.87;100.00
33189;BME280;52601;53.070;10.600;2023-06-22T18:37:05;52551.44;;;-141.87;100.00
33189;BME280;52601;53.070;10.600;2023-06-22T18:40:52;52551.44;;;-141.87;100.00
33189;BME280;52601;53.070;10.600;2023-06-22T18:44:40;52551.44;;;-141.87;100.00
33189;BME280;52601;53.070;10.600;2023-06-22T18:48:25;52551.44;;;-141.87;100.00
33189;BME280;52601;53.070;10.600;2023-06-22T18:56:12;52551.44;;;-141.87;100.00
33189;BME280;52601;53.070;10.600;2023-06-22T19:03:48;52551.44;;;-141.87;100.00
33189;BME280;52601;53.070;10.600;2023-06-22T19:11:37;52551.44;;;-141.87;100.00
33189;BME280;52601;53.070;10.600;2023-06-22T19:15:21;52551.44;;;-141.87;100.00
33189;BME280;52601;53.070;10.600;2023-06-22T19:19:20;52551.44;;;-141.87;100.00
33189;BME280;52601;53.070;10.600;2023-06-22T19:27:11;52551.44;;;-141.87;100.00
33189;BME280;52601;53.070;10.600;2023-06-22T19:30:56;52551.44;;;-141.87;100.00
33189;BME280;52601;53.070;10.600;2023-06-22T19:34:42;52551.44;;;-141.87;100.00
33189;BME280;52601;53.070;10.600;2023-06-22T19:38:29;52551.44;;;-141.87;100.00
33189;BME280;52601;53.070;10.600;2023-06-22T19:42:19;52551.44;;;-141.87;100.00
33189;BME280;52601;53.070;10.600;2023-06-22T19:46:03;52551.44;;;-141.87;100.00
33189;BME280;52601;53.070;10.600;2023-06-22T19:49:47;52551.44;;;-141.87;100.00
33189;BME280;52601;53.070;10.600;2023-06-22T19:53:32;52551.44;;;-141.87;100.00
33189;BME280;52601;53.070;10.600;2023-06-22T19:57:19;52551.44;;;-141.87;100.00
33189;BME280;52601;53.070;10.600;2023-06-22T20:01:03;52551.44;;;-141.87;100.00
33189;BME280;52601;53.070;10.600;2023-06-22T20:04:48;52551.44;;;-141.87;100.00
33189;BME280;52601;53.070;10.600;2023-06-22T20:08:54;52551.44;;;-141.87;100.00
33189;BME280;52601;53.070;10.600;2023-06-22T20:12:42;52551.44;;;-141.87;100.00
33189;BME280;52601;53.070;10.600;2023-06-22T20:16:26;52551.44;;;-141.87;100.00
33189;BME280;52601;53.070;10.600;2023-06-22T20:20:26;52551.44;;;-141.87;100.00
33189;BME280;52601;53.070;10.600;2023-06-22T20:24:15;52551.44;;;-141.87;100.00
33189;BME280;52601;53.070;10.600;2023-06-22T20:32:02;52551.44;;;-141.87;100.00
33189;BME280;52601;53.070;10.600;2023-06-22T20:35:46;52551.44;;;-141.87;100.00
33189;BME280;52601;53.070;10.600;2023-06-22T20:39:33;52551.44;;;-141.87;100.00
33189;BME280;52601;53.070;10.600;2023-06-22T20:43:18;52551.44;;;-141.87;100.00
33189;BME280;52601;53.070;10.600;2023-06-22T20:47:03;52551.44;;;-141.87;100.00
33189;BME280;52601;53.070;10.600;2023-06-22T20:50:48;52551.44;;;-141.87;100.00
33189;BME280;52601;53.070;10.600;2023-06-22T20:54:32;52551.44;;;-141.87;100.00
33189;BME280;52601;53.070;10.600;2023-06-22T20:58:19;52551.44;;;-141.87;100.00
33189;BME280;52601;53.070;10.600;2023-06-22T21:02:03;52551.44;;;-141.87;100.00
33189;BME280;52601;53.070;10.600;2023-06-22T21:05:47;52551.44;;;-141.87;100.00
33189;BME280;52601;53.070;10.600;2023-06-22T21:09:32;52551.44;;;-141.87;100.00
33189;BME280;52601;53.070;10.600;2023-06-22T21:13:34;52551.44;;;-141.87;100.00
33189;BME280;52601;53.070;10.600;2023-06-22T21:17:19;52551.44;;;-141.87;100.00
33189;BME280;52601;53.070;10.600;2023-06-22T21:21:04;52551.44;;;-141.87;100.00
33189;BME280;52601;53.070;10.600;2023-06-22T21:25:10;52551.44;;;-141.87;100.00
33189;BME280;52601;53.070;10.600;2023-06-22T21:28:53;52551.44;;;-141.87;100.00
33189;BME280;52601;53.070;10.600;2023-06-22T21:32:38;52551.44;;;-141.87;100.00
33189;BME280;52601;53.070;10.600;2023-06-22T21:36:23;52551.44;;;-141.87;100.00
33189;BME280;52601;53.070;10.600;2023-06-22T21:40:07;52551.44;;;-141.87;100.00
33189;BME280;52601;53.070;10.600;2023-06-22T21:43:52;52551.44;;;-141.87;100.00
33189;BME280;52601;53.070;10.600;2023-06-22T21:47:36;52551.44;;;-141.87;100.00
33189;BME280;52601;53.070;10.600;2023-06-22T21:51:20;52551.44;;;-141.87;100.00
33189;BME280;52601;53.070;10.600;2023-06-22T21:55:05;52551.44;;;-141.87;100.00
33189;BME280;52601;53.070;10.600;2023-06-22T21:58:49;52551.44;;;-141.87;100.00
33189;BME280;52601;53.070;10.600;2023-06-22T22:02:33;52551.44;;;-141.87;100.00
33189;BME280;52601;53.070;10.600;2023-06-22T22:06:17;52551.44;;;-141.87;100.00
33189;BME280;52601;53.070;10.600;2023-06-22T22:10:04;52551.44;;;-141.87;100.00
33189;BME280;52601;53.070;10.600;2023-06-22T22:13:51;52551.44;;;-141.87;100.00
33189;BME280;52601;53.070;10.600;2023-06-22T22:17:37;52551.44;;;-141.87;100.00
33189;BME280;52601;53.070;10.600;2023-06-22T22:21:21;52551.44;;;-141.87;100.00
33189;BME280;52601;53.070;10.600;2023-06-22T22:25:05;52551.44;;;-141.87;100.00
33189;BME280;52601;53.070;10.600;2023-06-22T22:28:50;52551.44;;;-141.87;100.00
33189;BME280;52601;53.070;10.600;2023-06-22T22:32:34;52551.44;;;-141.87;100.00
33189;BME280;52601;53.070;10.600;2023-06-22T22:36:19;52551.44;;;-141.87;100.00
33189;BME280;52601;53.070;10.600;2023-06-22T22:40:03;52551.44;;;-141.87;100.00
33189;BME280;52601;53.070;10.600;2023-06-22T22:43:50;52551.44;;;-141.87;100.00
33189;BME280;52601;53.070;10.600;2023-06-22T22:47:34;52551.44;;;-141.87;100.00
33189;BME280;52601;53.070;10.600;2023-06-22T22:51:18;52551.44;;;-141.87;100.00
33189;BME280;52601;53.070;10.600;2023-06-22T22:55:03;52551.44;;;-141.87;100.00
33189;BME280;52601;53.070;10.600;2023-06-22T22:58:47;52551.44;;;-141.87;100.00
33189;BME280;52601;53.070;10.600;2023-06-22T23:02:31;52551.44;;;-141.87;100.00
33189;BME280;52601;53.070;10.600;2023-06-22T23:06:15;52551.44;;;-141.87;100.00
33189;BME280;52601;53.070;10.600;2023-06-22T23:09:59;52551.44;;;-141.87;100.00
33189;BME280;52601;53.070;10.600;2023-06-22T23:13:44;52551.44;;;-141.87;100.00
33189;BME280;52601;53.070;10.600;2023-06-22T23:17:28;52551.44;;;-141.87;100.00
33189;BME280;52601;53.070;10.600;2023-06-22T23:21:12;52551.44;;;-141.87;100.00
33189;BME280;52601;53.070;10.600;2023-06-22T23:24:56;52551.44;;;-141.87;100.00
33189;BME280;52601;53.070;10.600;2023-06-22T23:28:40;52551.44;;;-141.87;100.00
33189;BME280;52601;53.070;10.600;2023-06-22T23:32:25;52551.44;;;-141.87;100.00
33189;BME280;52601;53.070;10.600;2023-06-22T23:36:09;52551.44;;;-141.87;100.00
33189;BME280;52601;53.070;10.600;2023-06-22T23:39:53;52551.44;;;-141.87;100.00
33189;BME280;52601;53.070;10.600;2023-06-22T23:43:37;52551.44;;;-141.87;100.00
33189;BME280;52601;53.070;10.600;2023-06-22T23:47:22;52551.44;;;-141.87;100.00
33189;BME280;52601;53.070;10.600;2023-06-22T23:51:07;52551.44;;;-141.87;100.00
33189;BME280;52601;53.070;10.600;2023-06-22T23:54:51;52551.44;;;-141.87;100.00
33189;BME280;52601;53.070;10.600;2023-06-22T23:58:35;52551.44;;;-141.87;100.00
